createdAt,value
2023-01-10T00:01:19.885Z,-17.67
2023-01-10T00:03:46.850Z,-17.82
2023-01-10T00:06:13.826Z,-17.83
2023-01-10T00:08:40.840Z,-18.11
2023-01-10T00:11:26.298Z,-18.01
2023-01-10T00:13:54.886Z,-17.76
2023-01-10T00:16:22.088Z,-17.86
2023-01-10T00:18:49.593Z,-17.87
2023-01-10T00:21:16.951Z,-17.92
2023-01-10T00:23:44.609Z,-17.90
2023-01-10T00:26:12.336Z,-18.07
2023-01-10T00:28:39.622Z,-17.89
2023-01-10T00:31:07.184Z,-17.76
2023-01-10T00:33:35.299Z,-18.05
2023-01-10T00:36:04.840Z,-17.69
2023-01-10T00:38:33.475Z,-17.68
2023-01-10T00:41:00.554Z,-17.63
2023-01-10T00:43:45.968Z,-17.78
2023-01-10T00:46:13.557Z,-18.22
2023-01-10T00:48:41.581Z,-17.56
2023-01-10T00:51:08.608Z,-17.48
2023-01-10T00:53:35.585Z,-17.47
2023-01-10T00:56:02.654Z,-17.66
2023-01-10T00:58:29.652Z,-18.01
2023-01-10T01:00:56.747Z,-17.71
2023-01-10T01:03:23.851Z,-17.47
2023-01-10T01:05:51.180Z,-17.39
2023-01-10T01:08:19.349Z,-17.33
2023-01-10T01:10:46.934Z,-17.28
2023-01-10T01:13:21.685Z,-17.47
2023-01-10T01:15:50.057Z,-17.18
2023-01-10T01:18:20.964Z,-17.16
2023-01-10T01:20:52.688Z,-17.23
2023-01-10T01:23:19.781Z,-17.67
2023-01-10T01:25:51.151Z,-17.16
2023-01-10T01:28:18.192Z,-17.20
2023-01-10T01:30:45.369Z,-17.10
2023-01-10T01:33:12.509Z,-17.00
2023-01-10T01:35:45.999Z,-17.26
2023-01-10T01:38:13.900Z,-17.32
2023-01-10T01:40:42.372Z,-17.03
2023-01-10T01:43:21.382Z,-17.23
2023-01-10T01:45:48.446Z,-17.13
2023-01-10T01:48:30.023Z,-17.41
2023-01-10T01:51:07.787Z,-17.33
2023-01-10T01:53:45.384Z,-17.42
2023-01-10T01:56:25.565Z,-17.31
2023-01-10T01:59:13.192Z,-17.18
2023-01-10T02:01:42.876Z,-17.23
2023-01-10T02:04:16.263Z,-17.13
2023-01-10T02:06:44.970Z,-17.28
2023-01-10T02:09:34.883Z,-17.29
2023-01-10T02:12:02.395Z,-17.20
2023-01-10T02:14:31.387Z,-17.18
2023-01-10T02:16:58.385Z,-17.22
2023-01-10T02:19:43.423Z,-17.35
2023-01-10T02:22:39.928Z,-17.06
2023-01-10T02:25:21.821Z,-17.33
2023-01-10T02:28:06.232Z,-17.29
2023-01-10T02:31:03.723Z,-17.11
2023-01-10T02:33:37.487Z,-17.22
2023-01-10T02:36:22.742Z,-17.13
2023-01-10T02:39:04.849Z,-17.06
2023-01-10T02:41:47.643Z,-17.03
2023-01-10T02:44:24.800Z,-17.11
2023-01-10T02:46:52.017Z,-17.31
2023-01-10T02:49:19.630Z,-17.16
2023-01-10T02:51:46.679Z,-17.32
2023-01-10T02:54:20.081Z,-17.05
2023-01-10T02:57:15.617Z,-17.00
2023-01-10T03:00:21.182Z,-17.08
2023-01-10T03:03:14.781Z,-17.09
2023-01-10T03:06:09.970Z,-17.17
2023-01-10T03:08:50.117Z,-17.16
2023-01-10T03:11:37.214Z,-17.50
2023-01-10T03:14:06.511Z,-17.07
2023-01-10T03:16:35.849Z,-17.02
2023-01-10T03:19:08.572Z,-16.99
2023-01-10T03:21:37.634Z,-16.93
2023-01-10T03:24:18.775Z,-16.87
2023-01-10T03:27:27.696Z,-16.81
2023-01-10T03:30:04.813Z,-16.73
2023-01-10T03:32:32.962Z,-16.91
2023-01-10T03:35:02.312Z,-16.94
2023-01-10T03:37:42.006Z,-16.85
2023-01-10T03:40:18.367Z,-16.84
2023-01-10T03:43:06.849Z,-16.66
2023-01-10T03:46:11.390Z,-16.91
2023-01-10T03:48:42.725Z,-16.76
2023-01-10T03:51:10.552Z,-16.73
2023-01-10T03:53:39.454Z,-16.65
2023-01-10T03:56:07.412Z,-16.64
2023-01-10T03:58:34.564Z,-16.60
2023-01-10T04:01:01.789Z,-16.62
2023-01-10T04:03:28.868Z,-16.54
2023-01-10T04:05:55.891Z,-16.86
2023-01-10T04:08:23.040Z,-16.69
2023-01-10T04:10:50.406Z,-16.53
2023-01-10T04:13:17.446Z,-16.89
2023-01-10T04:15:44.454Z,-16.68
2023-01-10T04:18:13.129Z,-16.70
2023-01-10T04:20:40.270Z,-16.32
2023-01-10T04:23:07.226Z,-16.26
2023-01-10T04:25:34.245Z,-16.31
2023-01-10T04:28:01.225Z,-16.47
2023-01-10T04:30:28.246Z,-16.22
2023-01-10T04:32:55.289Z,-16.05
2023-01-10T04:35:22.381Z,-16.25
2023-01-10T04:37:49.323Z,-16.01
2023-01-10T04:40:19.605Z,-16.61
2023-01-10T04:42:46.880Z,-16.26
2023-01-10T04:45:17.827Z,-16.47
2023-01-10T04:47:50.256Z,-16.13
2023-01-10T04:50:18.058Z,-15.99
2023-01-10T04:52:45.151Z,-16.22
2023-01-10T04:55:12.198Z,-15.89
2023-01-10T04:57:39.300Z,-15.84
2023-01-10T05:00:07.087Z,-15.87
2023-01-10T05:02:34.235Z,-15.63
2023-01-10T05:05:01.386Z,-15.58
2023-01-10T05:07:29.949Z,-15.65
2023-01-10T05:09:56.966Z,-15.86
2023-01-10T05:12:24.239Z,-15.67
2023-01-10T05:14:51.252Z,-15.79
2023-01-10T05:17:18.228Z,-15.74
2023-01-10T05:19:45.403Z,-15.60
2023-01-10T05:22:12.396Z,-15.96
2023-01-10T05:24:39.401Z,-16.11
2023-01-10T05:27:06.472Z,-16.11
2023-01-10T05:29:34.609Z,-15.73
2023-01-10T05:32:01.681Z,-16.65
2023-01-10T05:34:28.836Z,-15.98
2023-01-10T05:36:55.825Z,-15.62
2023-01-10T05:39:22.869Z,-15.61
2023-01-10T05:41:49.893Z,-15.57
2023-01-10T05:44:16.895Z,-15.63
2023-01-10T05:46:43.850Z,-15.73
2023-01-10T05:49:11.119Z,-15.47
2023-01-10T05:51:38.095Z,-15.50
2023-01-10T05:54:05.182Z,-15.44
2023-01-10T05:56:32.149Z,-15.58
2023-01-10T05:59:09.824Z,-15.47
2023-01-10T06:01:44.122Z,-15.40
2023-01-10T06:04:11.103Z,-15.26
2023-01-10T06:06:38.084Z,-15.65
2023-01-10T06:09:05.262Z,-15.38
2023-01-10T06:11:36.558Z,-15.40
2023-01-10T06:14:03.516Z,-15.35
2023-01-10T06:16:30.622Z,-15.23
2023-01-10T06:18:57.519Z,-15.30
2023-01-10T06:21:24.509Z,-15.29
2023-01-10T06:23:51.478Z,-15.33
2023-01-10T06:26:18.826Z,-15.25
2023-01-10T06:28:45.792Z,-15.37
2023-01-10T06:31:15.100Z,-15.26
2023-01-10T06:33:44.119Z,-15.17
2023-01-10T06:36:11.553Z,-15.12
2023-01-10T06:38:38.601Z,-15.21
2023-01-10T06:41:13.275Z,-15.04
2023-01-10T06:43:46.101Z,-14.97
2023-01-10T06:46:16.687Z,-15.06
2023-01-10T06:48:45.758Z,-15.02
2023-01-10T06:51:19.843Z,-15.12
2023-01-10T06:53:47.161Z,-15.12
2023-01-10T06:56:14.118Z,-15.06
2023-01-10T06:58:41.271Z,-15.07
2023-01-10T07:01:14.104Z,-14.91
2023-01-10T07:03:41.306Z,-14.81
2023-01-10T07:06:12.170Z,-14.82
2023-01-10T07:08:45.250Z,-14.74
2023-01-10T07:11:17.230Z,-14.93
2023-01-10T07:13:44.383Z,-14.81
2023-01-10T07:16:14.022Z,-14.72
2023-01-10T07:18:42.507Z,-14.65
2023-01-10T07:21:10.493Z,-14.60
2023-01-10T07:23:38.444Z,-14.81
2023-01-10T07:26:07.649Z,-14.84
2023-01-10T07:28:34.932Z,-14.72
2023-01-10T07:31:03.689Z,-14.57
2023-01-10T07:33:31.438Z,-14.80
2023-01-10T07:36:00.964Z,-14.62
2023-01-10T07:38:28.220Z,-14.86
2023-01-10T07:40:55.226Z,-14.75
2023-01-10T07:43:22.340Z,-14.43
2023-01-10T07:45:49.417Z,-14.45
2023-01-10T07:48:16.482Z,-14.44
2023-01-10T07:50:43.486Z,-14.47
2023-01-10T07:53:10.468Z,-14.70
2023-01-10T07:55:39.866Z,-14.28
2023-01-10T07:58:10.855Z,-14.34
2023-01-10T08:00:38.196Z,-14.24
2023-01-10T08:03:06.471Z,-14.39
2023-01-10T08:05:33.705Z,-14.26
2023-01-10T08:08:11.182Z,-14.24
2023-01-10T08:10:40.049Z,-14.20
2023-01-10T08:13:18.389Z,-14.24
2023-01-10T08:15:47.478Z,-14.02
2023-01-10T08:18:14.657Z,-13.87
2023-01-10T08:20:41.914Z,-13.80
2023-01-10T08:23:08.925Z,-13.96
2023-01-10T08:25:37.345Z,-14.01
2023-01-10T08:28:05.773Z,-13.82
2023-01-10T08:30:33.159Z,-13.66
2023-01-10T08:33:03.561Z,-13.80
2023-01-10T08:35:31.034Z,-13.66
2023-01-10T08:38:01.101Z,-13.70
2023-01-10T08:40:28.143Z,-13.69
2023-01-10T08:43:04.112Z,-13.59
2023-01-10T08:45:31.301Z,-13.68
2023-01-10T08:47:58.371Z,-13.70
2023-01-10T08:50:25.514Z,-13.64
2023-01-10T08:52:52.471Z,-13.54
2023-01-10T08:55:20.505Z,-13.48
2023-01-10T08:57:47.528Z,-13.39
2023-01-10T09:00:15.186Z,-13.25
2023-01-10T09:02:42.182Z,-13.22
2023-01-10T09:05:22.179Z,-13.32
2023-01-10T09:07:57.834Z,-13.58
2023-01-10T09:10:24.835Z,-13.36
2023-01-10T09:12:54.825Z,-13.42
2023-01-10T09:15:27.252Z,-13.21
2023-01-10T09:17:59.520Z,-13.25
2023-01-10T09:20:28.770Z,-13.07
2023-01-10T09:22:57.173Z,-13.15
2023-01-10T09:25:25.289Z,-12.83
2023-01-10T09:28:00.267Z,-12.74
2023-01-10T09:30:28.586Z,-12.80
2023-01-10T09:32:57.134Z,-12.76
2023-01-10T09:35:26.147Z,-12.70
2023-01-10T09:37:58.159Z,-12.68
2023-01-10T09:40:41.681Z,-12.38
2023-01-10T09:43:16.928Z,-12.47
2023-01-10T09:45:46.612Z,-12.50
2023-01-10T09:48:32.750Z,-12.39
2023-01-10T09:51:18.323Z,-12.13
2023-01-10T09:53:50.611Z,-12.39
2023-01-10T09:56:18.881Z,-12.28
2023-01-10T09:58:48.066Z,-12.06
2023-01-10T10:01:19.053Z,-11.98
2023-01-10T10:04:11.992Z,-11.94
2023-01-10T10:06:39.244Z,-12.05
2023-01-10T10:09:06.233Z,-11.80
2023-01-10T10:11:50.164Z,-11.73
2023-01-10T10:14:32.336Z,-11.85
2023-01-10T10:17:01.883Z,-12.00
2023-01-10T10:19:52.516Z,-11.89
2023-01-10T10:22:45.838Z,-11.83
2023-01-10T10:25:21.750Z,-11.90
2023-01-10T10:28:09.579Z,-11.70
2023-01-10T10:30:45.426Z,-11.68
2023-01-10T10:33:37.387Z,-11.81
2023-01-10T10:36:12.133Z,-11.95
2023-01-10T10:38:45.160Z,-11.99
2023-01-10T10:41:26.340Z,-11.86
2023-01-10T10:43:54.990Z,-11.93
2023-01-10T10:46:22.733Z,-11.81
2023-01-10T10:48:59.809Z,-11.95
2023-01-10T10:51:42.545Z,-11.79
2023-01-10T10:54:13.756Z,-11.64
2023-01-10T10:56:41.915Z,-11.53
2023-01-10T10:59:09.064Z,-11.63
2023-01-10T11:01:36.258Z,-11.63
2023-01-10T11:04:10.531Z,-12.17
2023-01-10T11:06:41.130Z,-11.41
2023-01-10T11:09:08.525Z,-11.48
2023-01-10T11:11:46.836Z,-11.34
2023-01-10T11:14:13.923Z,-11.27
2023-01-10T11:16:46.853Z,-11.24
2023-01-10T11:19:27.540Z,-11.27
2023-01-10T11:21:54.596Z,-11.24
2023-01-10T11:24:31.312Z,-11.16
2023-01-10T11:26:59.733Z,-11.27
2023-01-10T11:29:35.802Z,-11.07
2023-01-10T11:32:15.092Z,-11.02
2023-01-10T11:34:50.527Z,-10.94
2023-01-10T11:37:19.152Z,-11.10
2023-01-10T11:39:46.202Z,-11.05
2023-01-10T11:42:39.419Z,-11.02
2023-01-10T11:45:20.243Z,-10.95
2023-01-10T11:47:56.862Z,-10.96
2023-01-10T11:50:31.256Z,-12.27
2023-01-10T11:52:59.079Z,-11.08
2023-01-10T11:55:29.772Z,-11.13
2023-01-10T11:58:15.163Z,-10.79
2023-01-10T12:00:50.130Z,-10.73
2023-01-10T12:03:30.863Z,-10.90
2023-01-10T12:06:09.765Z,-10.94
2023-01-10T12:08:42.743Z,-11.24
2023-01-10T12:11:15.623Z,-11.29
2023-01-10T12:13:53.526Z,-11.18
2023-01-10T12:16:29.984Z,-10.97
2023-01-10T12:19:04.731Z,-10.92
2023-01-10T12:21:39.585Z,-10.82
2023-01-10T12:24:16.166Z,-10.89
2023-01-10T12:26:47.386Z,-10.94
2023-01-10T12:29:26.743Z,-10.75
2023-01-10T12:31:59.145Z,-10.83
2023-01-10T12:34:42.006Z,-10.67
2023-01-10T12:37:26.540Z,-10.61
2023-01-10T12:40:09.704Z,-10.88
2023-01-10T12:43:13.988Z,-10.91
2023-01-10T12:45:51.384Z,-11.30
2023-01-10T12:48:50.084Z,-10.86
2023-01-10T12:51:23.247Z,-11.24
2023-01-10T12:54:01.523Z,-11.14
2023-01-10T12:56:30.654Z,-11.71
2023-01-10T12:59:16.196Z,-11.10
2023-01-10T13:01:50.205Z,-10.98
2023-01-10T13:04:22.792Z,-11.16
2023-01-10T13:06:51.356Z,-11.78
2023-01-10T13:09:22.572Z,-11.06
2023-01-10T13:12:17.468Z,-10.84
2023-01-10T13:14:55.257Z,-11.01
2023-01-10T13:17:40.091Z,-10.94
2023-01-10T13:20:24.723Z,-11.04
2023-01-10T13:22:55.861Z,-11.03
2023-01-10T13:25:35.204Z,-10.91
2023-01-10T13:28:06.966Z,-11.13
2023-01-10T13:30:42.865Z,-11.67
2023-01-10T13:33:24.409Z,-10.99
2023-01-10T13:35:53.824Z,-11.28
2023-01-10T13:38:35.933Z,-11.24
2023-01-10T13:41:33.434Z,-11.50
2023-01-10T13:44:15.177Z,-11.34
2023-01-10T13:46:48.894Z,-11.20
2023-01-10T13:49:25.917Z,-11.13
2023-01-10T13:52:29.711Z,-11.12
2023-01-10T13:55:03.903Z,-11.27
2023-01-10T13:57:56.354Z,-11.44
2023-01-10T14:00:54.221Z,-11.37
2023-01-10T14:03:50.542Z,-11.29
2023-01-10T14:06:29.700Z,-11.77
2023-01-10T14:08:58.957Z,-11.64
2023-01-10T14:11:52.207Z,-11.35
2023-01-10T14:14:26.835Z,-11.42
2023-01-10T14:16:58.141Z,-11.32
2023-01-10T14:19:30.377Z,-11.35
2023-01-10T14:22:00.764Z,-11.68
2023-01-10T14:24:35.982Z,-11.48
2023-01-10T14:27:04.529Z,-11.34
2023-01-10T14:29:34.699Z,-11.33
2023-01-10T14:32:18.715Z,-11.42
2023-01-10T14:34:49.915Z,-11.42
2023-01-10T14:37:31.452Z,-11.44
2023-01-10T14:39:59.715Z,-11.32
2023-01-10T14:42:28.686Z,-11.41
2023-01-10T14:45:23.142Z,-11.54
2023-01-10T14:47:50.294Z,-11.22
2023-01-10T14:50:30.677Z,-11.20
2023-01-10T14:52:58.099Z,-11.36
2023-01-10T14:55:25.361Z,-11.26
2023-01-10T14:57:59.444Z,-11.12
2023-01-10T15:00:32.109Z,-11.17
2023-01-10T15:03:03.402Z,-11.24
2023-01-10T15:05:36.176Z,-11.14
2023-01-10T15:08:21.602Z,-11.07
2023-01-10T15:10:52.059Z,-11.12
2023-01-10T15:13:22.050Z,-11.52
2023-01-10T15:15:51.018Z,-11.08
2023-01-10T15:18:41.484Z,-11.03
2023-01-10T15:21:12.901Z,-11.02
2023-01-10T15:23:44.166Z,-11.17
2023-01-10T15:26:17.085Z,-11.04
2023-01-10T15:29:03.226Z,-11.10
2023-01-10T15:31:30.635Z,-11.12
2023-01-10T15:33:58.537Z,-11.62
2023-01-10T15:36:28.382Z,-11.02
2023-01-10T15:38:55.522Z,-11.09
2023-01-10T15:41:24.420Z,-11.39
2023-01-10T15:43:54.393Z,-11.25
2023-01-10T15:46:24.365Z,-11.39
2023-01-10T15:49:01.640Z,-11.37
2023-01-10T15:51:33.957Z,-11.32
2023-01-10T15:54:05.824Z,-11.25
2023-01-10T15:56:36.018Z,-11.87
2023-01-10T15:59:03.221Z,-11.11
2023-01-10T16:01:31.976Z,-11.22
2023-01-10T16:04:02.314Z,-11.29
2023-01-10T16:06:34.787Z,-11.34
2023-01-10T16:09:07.247Z,-11.23
2023-01-10T16:12:09.435Z,-11.28
2023-01-10T16:14:37.966Z,-11.42
2023-01-10T16:17:05.642Z,-11.15
2023-01-10T16:19:32.904Z,-11.27
2023-01-10T16:22:01.205Z,-11.29
2023-01-10T16:24:35.254Z,-11.24
2023-01-10T16:27:06.459Z,-11.04
2023-01-10T16:29:34.326Z,-11.08
2023-01-10T16:32:01.282Z,-11.03
2023-01-10T16:34:28.255Z,-11.20
2023-01-10T16:36:55.249Z,-11.17
2023-01-10T16:39:23.824Z,-11.04
2023-01-10T16:42:09.176Z,-11.20
2023-01-10T16:44:36.191Z,-11.00
2023-01-10T16:47:06.611Z,-11.47
2023-01-10T16:49:34.223Z,-11.27
2023-01-10T16:52:01.214Z,-11.35
2023-01-10T16:54:28.501Z,-11.35
2023-01-10T16:56:56.046Z,-11.12
2023-01-10T16:59:23.218Z,-11.13
2023-01-10T17:01:56.946Z,-11.19
2023-01-10T17:04:35.133Z,-11.39
2023-01-10T17:07:02.337Z,-11.28
2023-01-10T17:09:31.091Z,-11.01
2023-01-10T17:12:06.757Z,-11.02
2023-01-10T17:14:36.492Z,-10.98
2023-01-10T17:17:04.801Z,-11.03
2023-01-10T17:19:31.981Z,-10.81
2023-01-10T17:22:00.408Z,-11.09
2023-01-10T17:24:29.776Z,-11.06
2023-01-10T17:26:57.035Z,-10.89
2023-01-10T17:29:24.020Z,-10.84
2023-01-10T17:31:51.100Z,-10.92
2023-01-10T17:34:18.419Z,-11.40
2023-01-10T17:36:45.459Z,-11.00
2023-01-10T17:39:12.421Z,-10.91
2023-01-10T17:41:39.426Z,-11.05
2023-01-10T17:44:06.566Z,-11.00
2023-01-10T17:46:34.042Z,-11.69
2023-01-10T17:49:02.257Z,-11.51
2023-01-10T17:51:29.329Z,-11.75
2023-01-10T17:53:56.469Z,-11.44
2023-01-10T17:56:23.598Z,-11.23
2023-01-10T17:58:51.844Z,-11.09
2023-01-10T18:01:25.234Z,-11.14
2023-01-10T18:03:53.111Z,-11.09
2023-01-10T18:06:25.058Z,-11.02
2023-01-10T18:08:53.365Z,-11.18
2023-01-10T18:11:21.174Z,-11.32
2023-01-10T18:13:48.187Z,-11.04
2023-01-10T18:16:15.249Z,-11.45
2023-01-10T18:18:42.239Z,-11.00
2023-01-10T18:21:17.789Z,-11.04
2023-01-10T18:23:46.980Z,-11.70
2023-01-10T18:26:14.789Z,-10.92
2023-01-10T18:28:44.485Z,-11.01
2023-01-10T18:31:18.652Z,-11.15
2023-01-10T18:33:47.027Z,-11.08
2023-01-10T18:36:16.734Z,-11.21
2023-01-10T18:38:44.623Z,-11.15
2023-01-10T18:41:12.207Z,-11.13
2023-01-10T18:43:39.691Z,-11.06
2023-01-10T18:46:10.176Z,-11.06
2023-01-10T18:48:37.663Z,-11.59
2023-01-10T18:51:05.636Z,-11.05
2023-01-10T18:53:33.027Z,-11.04
2023-01-10T18:56:04.621Z,-11.02
2023-01-10T18:58:34.416Z,-11.08
2023-01-10T19:01:10.347Z,-11.02
2023-01-10T19:03:37.554Z,-11.08
2023-01-10T19:06:06.958Z,-11.10
2023-01-10T19:08:34.277Z,-11.04
2023-01-10T19:11:13.578Z,-11.08
2023-01-10T19:13:42.708Z,-11.06
2023-01-10T19:16:19.941Z,-11.28
2023-01-10T19:18:51.020Z,-10.93
2023-01-10T19:21:18.429Z,-10.99
2023-01-10T19:23:48.165Z,-11.14
2023-01-10T19:26:15.302Z,-11.11
2023-01-10T19:28:43.718Z,-11.00
2023-01-10T19:31:19.145Z,-10.87
2023-01-10T19:33:48.224Z,-10.92
2023-01-10T19:36:15.695Z,-10.99
2023-01-10T19:38:42.950Z,-11.00
2023-01-10T19:41:10.530Z,-11.10
2023-01-10T19:43:37.579Z,-11.17
2023-01-10T19:46:09.402Z,-11.06
2023-01-10T19:48:38.380Z,-10.90
2023-01-10T19:51:10.943Z,-11.00
2023-01-10T19:53:42.328Z,-10.89
2023-01-10T19:56:10.115Z,-10.79
2023-01-10T19:58:38.577Z,-11.01
2023-01-10T20:01:11.114Z,-10.90
2023-01-10T20:03:41.077Z,-10.90
2023-01-10T20:06:14.298Z,-10.78
2023-01-10T20:08:41.606Z,-11.02
2023-01-10T20:11:09.575Z,-10.88
2023-01-10T20:13:38.900Z,-11.00
2023-01-10T20:16:06.912Z,-10.99
2023-01-10T20:18:33.998Z,-11.17
2023-01-10T20:21:07.466Z,-11.01
2023-01-10T20:23:35.653Z,-10.99
2023-01-10T20:26:09.803Z,-10.95
2023-01-10T20:28:37.992Z,-10.99
2023-01-10T20:31:06.973Z,-11.10
2023-01-10T20:33:34.612Z,-11.12
2023-01-10T20:36:06.428Z,-10.89
2023-01-10T20:38:35.655Z,-11.21
2023-01-10T20:41:08.396Z,-10.85
2023-01-10T20:43:36.189Z,-10.90
2023-01-10T20:46:11.548Z,-10.84
2023-01-10T20:48:40.138Z,-10.84
2023-01-10T20:51:10.933Z,-10.76
2023-01-10T20:53:37.972Z,-10.77
2023-01-10T20:56:07.709Z,-10.84
2023-01-10T20:58:39.737Z,-10.73
2023-01-10T21:01:07.651Z,-10.84
2023-01-10T21:03:34.809Z,-11.10
2023-01-10T21:06:02.305Z,-11.12
2023-01-10T21:08:29.860Z,-11.25
2023-01-10T21:10:57.635Z,-11.26
2023-01-10T21:13:25.418Z,-11.02
2023-01-10T21:15:57.753Z,-10.97
2023-01-10T21:18:29.736Z,-10.99
2023-01-10T21:20:57.801Z,-10.83
2023-01-10T21:23:26.970Z,-11.06
2023-01-10T21:25:54.798Z,-11.05
2023-01-10T21:28:21.881Z,-11.10
2023-01-10T21:30:49.059Z,-10.96
2023-01-10T21:33:16.048Z,-10.98
2023-01-10T21:35:50.837Z,-10.89
2023-01-10T21:38:17.800Z,-10.94
2023-01-10T21:40:44.887Z,-11.29
2023-01-10T21:43:11.870Z,-10.84
2023-01-10T21:45:38.825Z,-10.81
2023-01-10T21:48:05.909Z,-11.09
2023-01-10T21:50:33.851Z,-10.88
2023-01-10T21:53:01.572Z,-10.89
2023-01-10T21:55:29.036Z,-11.10
2023-01-10T21:57:56.005Z,-10.87
2023-01-10T22:00:23.112Z,-10.87
2023-01-10T22:02:50.164Z,-10.81
2023-01-10T22:05:17.169Z,-10.91
2023-01-10T22:07:46.089Z,-10.78
2023-01-10T22:10:13.049Z,-10.81
2023-01-10T22:12:40.029Z,-10.89
2023-01-10T22:15:07.811Z,-10.86
2023-01-10T22:17:34.786Z,-11.13
2023-01-10T22:20:01.817Z,-10.92
2023-01-10T22:22:30.151Z,-10.85
2023-01-10T22:24:57.079Z,-10.76
2023-01-10T22:27:24.062Z,-11.00
2023-01-10T22:29:51.008Z,-10.88
2023-01-10T22:32:17.974Z,-10.96
2023-01-10T22:34:44.985Z,-10.82
2023-01-10T22:37:12.735Z,-10.92
2023-01-10T22:39:39.686Z,-10.92
2023-01-10T22:42:06.644Z,-10.87
2023-01-10T22:44:33.641Z,-10.84
2023-01-10T22:47:00.595Z,-10.98
2023-01-10T22:49:27.561Z,-10.87
2023-01-10T22:51:54.518Z,-11.10
2023-01-10T22:54:21.521Z,-10.93
2023-01-10T22:56:48.617Z,-10.94
2023-01-10T22:59:15.665Z,-11.05
2023-01-10T23:01:42.645Z,-11.01
2023-01-10T23:04:10.761Z,-11.24
2023-01-10T23:06:37.765Z,-10.88
2023-01-10T23:09:04.822Z,-11.06
2023-01-10T23:11:32.996Z,-11.32
2023-01-10T23:13:59.993Z,-11.00
2023-01-10T23:16:30.369Z,-11.44
2023-01-10T23:18:58.230Z,-11.05
2023-01-10T23:21:26.299Z,-11.28
2023-01-10T23:23:54.526Z,-11.07
2023-01-10T23:26:22.768Z,-11.01
2023-01-10T23:28:51.614Z,-11.03
2023-01-10T23:31:22.331Z,-11.06
2023-01-10T23:33:50.784Z,-11.14
2023-01-10T23:36:18.793Z,-10.99
2023-01-10T23:38:45.928Z,-10.98
2023-01-10T23:41:13.037Z,-10.91
2023-01-10T23:43:42.420Z,-11.04
2023-01-10T23:46:10.698Z,-11.07
2023-01-10T23:48:38.135Z,-10.97
2023-01-10T23:51:07.889Z,-11.01
2023-01-10T23:53:34.914Z,-11.10
2023-01-10T23:56:06.918Z,-11.03
2023-01-10T23:58:33.878Z,-11.10
